createdAt,value
2018-07-10T00:07:06.519Z,99.90
2018-07-10T00:09:43.492Z,99.90
2018-07-10T00:12:11.187Z,99.90
2018-07-10T00:14:38.912Z,99.90
2018-07-10T00:22:01.801Z,99.90
2018-07-10T00:24:29.695Z,99.90
2018-07-10T00:26:57.521Z,99.90
2018-07-10T00:29:25.357Z,99.90
2018-07-10T00:31:53.146Z,99.90
2018-07-10T00:36:48.769Z,99.90
2018-07-10T00:41:44.159Z,99.90
2018-07-10T00:44:11.898Z,99.90
2018-07-10T00:46:40.566Z,99.90
2018-07-10T00:49:08.384Z,99.90
2018-07-10T00:51:37.699Z,99.90
2018-07-10T00:54:05.568Z,99.90
2018-07-10T00:59:02.728Z,99.90
2018-07-10T01:01:30.479Z,99.90
2018-07-10T01:03:58.199Z,99.90
2018-07-10T01:06:25.883Z,99.90
2018-07-10T01:08:53.628Z,99.90
2018-07-10T01:11:21.424Z,99.90
2018-07-10T01:13:49.912Z,99.90
2018-07-10T01:16:22.445Z,99.90
2018-07-10T01:18:54.028Z,99.90
2018-07-10T01:24:02.506Z,99.90
2018-07-10T01:26:32.201Z,99.90
2018-07-10T01:32:35.277Z,99.90
2018-07-10T01:35:03.018Z,99.90
2018-07-10T01:37:31.839Z,99.90
2018-07-10T01:42:27.361Z,99.90
2018-07-10T01:44:55.077Z,99.90
2018-07-10T01:47:22.925Z,99.90
2018-07-10T01:49:50.683Z,99.90
2018-07-10T01:54:46.088Z,99.90
2018-07-10T01:57:13.930Z,99.90
2018-07-10T01:59:41.677Z,99.90
2018-07-10T02:02:09.349Z,99.90
2018-07-10T02:04:37.394Z,99.90
2018-07-10T02:07:05.465Z,99.90
2018-07-10T02:09:33.483Z,99.90
2018-07-10T02:12:01.279Z,99.90
2018-07-10T02:14:28.960Z,99.90
2018-07-10T02:16:56.685Z,99.90
2018-07-10T02:24:23.184Z,99.90
2018-07-10T02:26:50.893Z,99.90
2018-07-10T02:29:19.180Z,99.90
2018-07-10T02:34:15.805Z,99.90
2018-07-10T02:36:43.700Z,99.90
2018-07-10T02:39:11.572Z,99.90
2018-07-10T02:41:39.522Z,99.90
2018-07-10T02:44:07.446Z,99.90
2018-07-10T02:46:36.661Z,99.90
2018-07-10T02:49:08.900Z,99.90
2018-07-10T02:51:37.149Z,99.90
2018-07-10T02:56:33.089Z,99.90
2018-07-10T03:01:29.231Z,99.90
2018-07-10T03:03:58.818Z,99.90
2018-07-10T03:06:26.593Z,99.90
2018-07-10T03:08:55.458Z,99.90
2018-07-10T03:11:23.607Z,99.90
2018-07-10T03:13:51.960Z,99.90
2018-07-10T03:16:19.794Z,99.90
2018-07-10T03:18:47.486Z,99.90
2018-07-10T03:21:15.308Z,99.90
2018-07-10T03:23:43.074Z,99.90
2018-07-10T03:26:10.949Z,99.90
2018-07-10T03:28:38.903Z,99.90
2018-07-10T03:31:06.744Z,99.90
2018-07-10T03:33:34.588Z,99.90
2018-07-10T03:36:02.407Z,99.90
2018-07-10T03:38:30.308Z,99.90
2018-07-10T03:40:58.132Z,99.90
2018-07-10T03:43:26.914Z,99.90
2018-07-10T03:45:54.897Z,99.90
2018-07-10T03:48:23.049Z,99.90
2018-07-10T03:50:51.102Z,99.90
2018-07-10T03:53:20.754Z,99.90
2018-07-10T03:58:16.090Z,99.90
2018-07-10T04:03:11.991Z,99.90
2018-07-10T04:05:39.733Z,99.90
2018-07-10T04:08:09.019Z,99.90
2018-07-10T04:10:37.298Z,99.90
2018-07-10T04:13:10.447Z,99.90
2018-07-10T04:18:07.586Z,99.90
2018-07-10T04:20:49.009Z,99.90
2018-07-10T04:23:16.770Z,99.90
2018-07-10T04:25:49.977Z,99.90
2018-07-10T04:28:26.784Z,99.90
2018-07-10T04:31:02.691Z,99.90
2018-07-10T04:33:30.387Z,99.90
2018-07-10T04:35:58.438Z,99.90
2018-07-10T04:38:27.528Z,99.90
2018-07-10T04:41:00.496Z,99.90
2018-07-10T04:48:34.605Z,99.90
2018-07-10T04:51:15.748Z,99.90
2018-07-10T04:53:46.209Z,99.90
2018-07-10T04:56:14.298Z,99.90
2018-07-10T04:58:44.648Z,99.90
2018-07-10T05:01:13.611Z,99.90
2018-07-10T05:03:41.337Z,99.90
2018-07-10T05:06:09.065Z,99.90
2018-07-10T05:08:36.985Z,99.90
2018-07-10T05:11:04.752Z,99.90
2018-07-10T05:13:32.560Z,99.90
2018-07-10T05:16:03.576Z,99.90
2018-07-10T05:23:27.369Z,99.90
2018-07-10T05:28:24.256Z,99.90
2018-07-10T05:30:57.207Z,99.90
2018-07-10T05:33:25.027Z,99.90
2018-07-10T05:35:53.734Z,99.90
2018-07-10T05:38:25.139Z,99.90
2018-07-10T05:40:52.831Z,99.90
2018-07-10T05:43:20.739Z,99.90
2018-07-10T05:48:17.170Z,99.90
2018-07-10T05:50:44.882Z,99.90
2018-07-10T05:53:12.760Z,99.90
2018-07-10T05:55:44.875Z,99.90
2018-07-10T05:58:12.696Z,99.90
2018-07-10T06:00:40.445Z,99.90
2018-07-10T06:03:08.186Z,99.90
2018-07-10T06:08:03.724Z,99.90
2018-07-10T06:10:31.782Z,99.90
2018-07-10T06:13:00.848Z,99.90
2018-07-10T06:17:56.460Z,99.90
2018-07-10T06:20:24.804Z,99.90
2018-07-10T06:22:52.989Z,99.90
2018-07-10T06:25:21.583Z,99.90
2018-07-10T06:28:00.712Z,99.90
2018-07-10T06:30:28.540Z,99.90
2018-07-10T06:35:43.670Z,99.90
2018-07-10T06:38:13.447Z,99.90
2018-07-10T06:40:44.515Z,99.90
2018-07-10T06:44:16.959Z,99.90
2018-07-10T06:46:45.822Z,99.90
2018-07-10T06:49:21.143Z,99.90
2018-07-10T06:51:54.449Z,99.90
2018-07-10T06:54:22.362Z,99.90
2018-07-10T06:56:50.135Z,99.90
2018-07-10T06:59:17.911Z,99.90
2018-07-10T07:01:45.862Z,99.90
2018-07-10T07:04:13.794Z,99.90
2018-07-10T07:09:09.460Z,99.90
2018-07-10T07:11:37.224Z,99.90
2018-07-10T07:14:05.121Z,99.90
2018-07-10T07:16:33.220Z,99.90
2018-07-10T07:19:00.938Z,99.90
2018-07-10T07:21:28.798Z,99.90
2018-07-10T07:23:56.607Z,99.90
2018-07-10T07:26:24.308Z,99.90
2018-07-10T07:28:52.172Z,99.90
2018-07-10T07:31:20.106Z,99.90
2018-07-10T07:38:43.485Z,99.90
2018-07-10T07:41:11.656Z,99.90
2018-07-10T07:43:39.483Z,99.90
2018-07-10T07:46:07.341Z,99.90
2018-07-10T07:48:35.068Z,99.90
2018-07-10T07:55:59.694Z,99.90
2018-07-10T08:00:55.412Z,99.90
2018-07-10T08:03:23.348Z,99.90
2018-07-10T08:05:51.700Z,99.90
2018-07-10T08:08:19.638Z,99.90
2018-07-10T08:15:44.281Z,99.90
2018-07-10T08:18:12.069Z,99.90
2018-07-10T08:20:39.871Z,98.20
2018-07-10T08:23:07.763Z,97.80
2018-07-10T08:28:03.997Z,99.60
2018-07-10T08:32:59.607Z,99.10
2018-07-10T08:35:27.491Z,97.90
2018-07-10T08:40:22.984Z,95.50
2018-07-10T08:42:50.764Z,98.50
2018-07-10T08:45:18.480Z,96.60
2018-07-10T08:47:46.657Z,94.70
2018-07-10T08:50:14.434Z,93.90
2018-07-10T08:52:42.301Z,92.20
2018-07-10T08:55:10.196Z,92.80
2018-07-10T08:57:37.981Z,92.00
2018-07-10T09:00:05.837Z,91.40
2018-07-10T09:05:01.328Z,94.10
2018-07-10T09:07:29.097Z,94.40
2018-07-10T09:09:57.021Z,96.20
2018-07-10T09:12:24.751Z,97.30
2018-07-10T09:14:52.534Z,97.40
2018-07-10T09:17:20.404Z,96.10
2018-07-10T09:19:48.209Z,95.10
2018-07-10T09:22:16.085Z,94.70
2018-07-10T09:24:45.550Z,96.50
2018-07-10T09:27:15.811Z,96.00
2018-07-10T09:29:43.971Z,96.60
2018-07-10T09:32:11.690Z,94.60
2018-07-10T09:34:39.744Z,93.50
2018-07-10T09:42:09.717Z,94.80
2018-07-10T09:44:37.510Z,90.80
2018-07-10T09:47:05.356Z,92.90
2018-07-10T09:49:33.118Z,91.10
2018-07-10T09:52:00.858Z,90.90
2018-07-10T09:56:56.789Z,92.90
2018-07-10T10:04:21.616Z,92.10
2018-07-10T10:09:17.127Z,87.60
2018-07-10T10:11:45.139Z,91.40
2018-07-10T10:14:13.175Z,85.50
2018-07-10T10:19:08.933Z,80.10
2018-07-10T10:21:36.799Z,83.70
2018-07-10T10:24:04.773Z,80.70
2018-07-10T10:26:32.922Z,81.60
2018-07-10T10:31:28.550Z,85.00
2018-07-10T10:36:25.503Z,87.20
2018-07-10T10:43:48.999Z,88.00
2018-07-10T10:46:19.191Z,87.60
2018-07-10T10:48:47.884Z,87.30
2018-07-10T10:51:16.027Z,87.80
2018-07-10T10:53:43.859Z,86.20
2018-07-10T10:56:11.590Z,87.30
2018-07-10T10:58:39.449Z,81.70
2018-07-10T11:01:07.381Z,84.30
2018-07-10T11:03:35.158Z,79.40
2018-07-10T11:06:02.986Z,79.30
2018-07-10T11:08:30.849Z,80.40
2018-07-10T11:10:58.585Z,79.60
2018-07-10T11:13:26.373Z,79.00
2018-07-10T11:18:58.878Z,77.30
2018-07-10T11:21:36.425Z,75.30
2018-07-10T11:24:04.461Z,75.70
2018-07-10T11:26:36.047Z,75.60
2018-07-10T11:29:05.077Z,77.60
2018-07-10T11:31:32.992Z,75.50
2018-07-10T11:34:00.832Z,75.30
2018-07-10T11:36:29.039Z,78.50
2018-07-10T11:38:59.309Z,77.80
2018-07-10T11:41:27.935Z,76.10
2018-07-10T11:43:55.885Z,75.50
2018-07-10T11:46:23.546Z,74.10
2018-07-10T11:48:51.343Z,72.00
2018-07-10T11:51:19.452Z,69.00
2018-07-10T11:53:47.310Z,70.80
2018-07-10T11:56:15.126Z,72.20
2018-07-10T11:58:43.065Z,73.20
2018-07-10T12:01:10.861Z,72.90
2018-07-10T12:03:40.322Z,72.90
2018-07-10T12:06:09.142Z,72.50
2018-07-10T12:08:37.136Z,77.90
2018-07-10T12:11:14.476Z,69.80
2018-07-10T12:13:42.348Z,71.00
2018-07-10T12:16:10.576Z,67.70
2018-07-10T12:18:38.238Z,72.70
2018-07-10T12:21:06.726Z,67.80
2018-07-10T12:23:34.465Z,74.30
2018-07-10T12:26:04.856Z,68.50
2018-07-10T12:28:33.071Z,71.10
2018-07-10T12:31:01.208Z,66.40
2018-07-10T12:33:28.973Z,67.10
2018-07-10T12:35:56.628Z,67.20
2018-07-10T12:38:24.402Z,67.10
2018-07-10T12:40:52.177Z,67.60
2018-07-10T12:43:20.214Z,68.70
2018-07-10T12:45:47.981Z,66.80
2018-07-10T12:48:15.917Z,71.70
2018-07-10T12:53:12.187Z,65.60
2018-07-10T12:55:40.003Z,67.80
2018-07-10T12:58:07.778Z,68.50
2018-07-10T13:00:37.035Z,71.50
2018-07-10T13:03:06.195Z,68.50
2018-07-10T13:08:05.027Z,70.00
2018-07-10T13:10:32.759Z,71.30
2018-07-10T13:13:00.545Z,70.00
2018-07-10T13:15:28.525Z,68.90
2018-07-10T13:17:58.295Z,69.10
2018-07-10T13:20:26.073Z,69.00
2018-07-10T13:22:53.875Z,68.30
2018-07-10T13:25:21.630Z,70.80
2018-07-10T13:27:49.722Z,69.90
2018-07-10T13:30:17.563Z,69.70
2018-07-10T13:32:45.294Z,70.40
2018-07-10T13:37:43.220Z,68.30
2018-07-10T13:40:11.129Z,69.20
2018-07-10T13:42:46.109Z,70.10
2018-07-10T13:45:14.885Z,72.80
2018-07-10T13:47:42.646Z,69.90
2018-07-10T13:50:11.256Z,70.60
2018-07-10T13:52:39.372Z,70.60
2018-07-10T13:55:07.105Z,72.10
2018-07-10T13:57:34.968Z,72.20
2018-07-10T14:00:03.659Z,71.50
2018-07-10T14:02:32.655Z,72.00
2018-07-10T14:05:00.785Z,71.80
2018-07-10T14:07:28.588Z,72.60
2018-07-10T14:09:56.462Z,72.30
2018-07-10T14:12:24.284Z,72.70
2018-07-10T14:14:52.087Z,72.90
2018-07-10T14:19:47.574Z,73.00
2018-07-10T14:22:15.324Z,73.60
2018-07-10T14:24:43.066Z,71.40
2018-07-10T14:29:38.696Z,72.50
2018-07-10T14:32:06.731Z,73.80
2018-07-10T14:34:35.181Z,71.10
2018-07-10T14:37:03.084Z,71.60
2018-07-10T14:39:31.365Z,72.90
2018-07-10T14:41:59.239Z,72.50
2018-07-10T14:44:27.270Z,71.10
2018-07-10T14:46:55.342Z,71.10
2018-07-10T14:49:23.958Z,71.10
2018-07-10T14:51:52.102Z,70.10
2018-07-10T14:54:20.000Z,70.80
2018-07-10T15:06:39.354Z,68.90
2018-07-10T15:11:38.209Z,69.50
2018-07-10T15:14:07.199Z,70.30
2018-07-10T15:16:42.096Z,73.20
2018-07-10T15:19:09.965Z,71.00
2018-07-10T15:21:38.204Z,70.80
2018-07-10T15:24:07.226Z,71.90
2018-07-10T15:26:36.510Z,73.10
2018-07-10T15:31:32.463Z,73.40
2018-07-10T15:34:00.668Z,74.20
2018-07-10T15:36:28.533Z,74.30
2018-07-10T15:38:56.818Z,74.70
2018-07-10T15:41:25.933Z,76.20
2018-07-10T15:43:53.753Z,75.50
2018-07-10T15:46:21.633Z,76.10
2018-07-10T15:48:49.473Z,76.70
2018-07-10T15:51:17.246Z,77.00
2018-07-10T15:53:45.062Z,76.70
2018-07-10T15:56:12.818Z,78.30
2018-07-10T15:58:40.529Z,78.40
2018-07-10T16:01:08.388Z,78.70
2018-07-10T16:03:36.213Z,77.00
2018-07-10T16:06:04.753Z,77.00
2018-07-10T16:08:34.450Z,76.00
2018-07-10T16:11:03.556Z,77.70
2018-07-10T16:13:34.180Z,76.90
2018-07-10T16:16:02.539Z,75.50
2018-07-10T16:23:31.023Z,76.40
2018-07-10T16:26:07.257Z,76.10
2018-07-10T16:28:38.578Z,76.90
2018-07-10T16:31:06.906Z,76.20
2018-07-10T16:33:34.723Z,75.50
2018-07-10T16:36:04.828Z,76.90
2018-07-10T16:38:32.639Z,77.60
2018-07-10T16:41:06.170Z,77.30
2018-07-10T16:46:02.225Z,76.90
2018-07-10T16:48:41.329Z,76.30
2018-07-10T16:51:30.420Z,77.80
2018-07-10T16:56:28.225Z,77.40
2018-07-10T16:58:57.410Z,77.80
2018-07-10T17:01:26.259Z,77.40
2018-07-10T17:03:54.638Z,77.40
2018-07-10T17:06:23.916Z,78.00
2018-07-10T17:08:51.746Z,78.80
2018-07-10T17:11:19.444Z,80.40
2018-07-10T17:13:47.509Z,80.50
2018-07-10T17:16:19.565Z,79.80
2018-07-10T17:18:47.329Z,77.70
2018-07-10T17:21:15.440Z,78.00
2018-07-10T17:23:43.365Z,78.50
2018-07-10T17:26:11.330Z,80.10
2018-07-10T17:28:40.202Z,80.10
2018-07-10T17:31:08.154Z,80.90
2018-07-10T17:33:35.933Z,81.50
2018-07-10T17:36:03.931Z,82.30
2018-07-10T17:38:31.709Z,82.70
2018-07-10T17:40:59.656Z,82.90
2018-07-10T17:43:27.927Z,84.00
2018-07-10T17:45:56.363Z,83.40
2018-07-10T17:50:51.688Z,85.50
2018-07-10T17:53:19.544Z,85.00
2018-07-10T17:55:47.403Z,86.30
2018-07-10T17:58:18.254Z,86.10
2018-07-10T18:05:41.328Z,88.00
2018-07-10T18:08:09.313Z,88.50
2018-07-10T18:10:37.260Z,88.40
2018-07-10T18:13:05.488Z,89.50
2018-07-10T18:15:34.553Z,89.90
2018-07-10T18:18:02.531Z,90.10
2018-07-10T18:20:31.107Z,90.80
2018-07-10T18:22:59.070Z,91.20
2018-07-10T18:25:27.156Z,91.10
2018-07-10T18:27:56.020Z,91.20
2018-07-10T18:32:51.775Z,92.00
2018-07-10T18:35:19.714Z,91.80
2018-07-10T18:42:43.205Z,92.10
2018-07-10T18:45:11.285Z,92.40
2018-07-10T18:52:35.249Z,93.70
2018-07-10T18:55:03.141Z,93.30
2018-07-10T18:58:09.488Z,93.70
2018-07-10T19:00:45.046Z,94.00
2018-07-10T19:03:13.811Z,93.60
2018-07-10T19:05:47.511Z,93.60
2018-07-10T19:08:15.507Z,94.10
2018-07-10T19:10:45.413Z,94.20
2018-07-10T19:13:13.583Z,94.70
2018-07-10T19:15:41.973Z,96.00
2018-07-10T19:18:09.854Z,96.60
2018-07-10T19:23:20.187Z,96.90
2018-07-10T19:25:48.093Z,98.70
2018-07-10T19:28:16.038Z,99.60
2018-07-10T19:31:00.371Z,99.90
2018-07-10T19:33:29.255Z,99.90
2018-07-10T19:35:57.250Z,99.90
2018-07-10T19:38:24.953Z,99.90
2018-07-10T19:40:52.755Z,99.90
2018-07-10T19:43:22.573Z,99.90
2018-07-10T19:45:50.333Z,99.90
2018-07-10T19:48:19.312Z,99.90
2018-07-10T19:50:47.772Z,99.90
2018-07-10T19:53:15.850Z,99.90
2018-07-10T19:55:44.355Z,99.90
2018-07-10T19:58:45.757Z,99.90
2018-07-10T20:04:08.046Z,99.90
2018-07-10T20:07:04.280Z,99.90
2018-07-10T20:09:35.815Z,99.90
2018-07-10T20:12:07.367Z,99.90
2018-07-10T20:15:44.039Z,99.90
2018-07-10T20:18:21.226Z,99.90
2018-07-10T20:21:04.954Z,99.90
2018-07-10T20:24:40.694Z,99.90
2018-07-10T20:27:17.625Z,99.90
2018-07-10T20:32:00.426Z,99.90
2018-07-10T20:34:37.381Z,99.90
2018-07-10T20:37:05.478Z,99.90
2018-07-10T20:39:35.645Z,99.90
2018-07-10T20:42:03.698Z,99.90
2018-07-10T20:44:43.789Z,99.90
2018-07-10T20:47:11.541Z,99.90
2018-07-10T20:49:51.045Z,99.90
2018-07-10T20:52:24.678Z,99.90
2018-07-10T20:54:59.037Z,99.90
2018-07-10T20:57:35.963Z,99.90
2018-07-10T21:00:06.255Z,99.90
2018-07-10T21:04:52.070Z,99.90
2018-07-10T21:07:27.637Z,99.90
2018-07-10T21:10:00.572Z,99.90
2018-07-10T21:12:34.873Z,99.90
2018-07-10T21:15:05.897Z,99.90
2018-07-10T21:18:39.169Z,99.90
2018-07-10T21:21:45.045Z,99.90
2018-07-10T21:24:30.562Z,99.90
2018-07-10T21:27:02.711Z,99.90
2018-07-10T21:32:03.694Z,99.90
2018-07-10T21:34:43.023Z,99.90
2018-07-10T21:39:29.570Z,99.90
2018-07-10T21:42:41.013Z,99.90
2018-07-10T21:45:23.224Z,99.90
2018-07-10T21:47:56.996Z,99.90
2018-07-10T21:50:32.722Z,99.90
2018-07-10T21:53:00.831Z,99.90
2018-07-10T21:55:28.997Z,99.90
2018-07-10T22:00:36.195Z,99.90
2018-07-10T22:05:31.540Z,99.90
2018-07-10T22:07:59.515Z,99.90
2018-07-10T22:10:27.359Z,99.90
2018-07-10T22:15:23.090Z,99.90
2018-07-10T22:20:19.291Z,99.90
2018-07-10T22:22:47.781Z,99.90
2018-07-10T22:25:15.551Z,99.90
2018-07-10T22:27:43.399Z,99.90
2018-07-10T22:30:19.388Z,99.90
2018-07-10T22:33:00.804Z,99.90
2018-07-10T22:35:28.501Z,99.90
2018-07-10T22:37:56.464Z,99.90
2018-07-10T22:40:24.240Z,99.90
2018-07-10T22:42:52.069Z,99.90
2018-07-10T22:45:19.864Z,99.90
2018-07-10T22:47:47.660Z,99.90
2018-07-10T22:52:51.469Z,99.90
2018-07-10T22:55:20.978Z,99.90
2018-07-10T22:57:50.442Z,99.90
2018-07-10T23:00:25.439Z,99.90
2018-07-10T23:02:53.106Z,99.90
2018-07-10T23:05:20.858Z,99.90
2018-07-10T23:07:48.922Z,99.90
2018-07-10T23:10:16.825Z,99.90
2018-07-10T23:12:44.992Z,99.90
2018-07-10T23:15:12.892Z,99.90
2018-07-10T23:17:40.675Z,99.90
2018-07-10T23:20:08.376Z,99.90
2018-07-10T23:23:07.059Z,99.90
2018-07-10T23:25:34.860Z,99.90
2018-07-10T23:28:05.246Z,99.90
2018-07-10T23:30:37.744Z,99.90
2018-07-10T23:33:07.216Z,99.90
2018-07-10T23:38:15.536Z,99.90
2018-07-10T23:43:11.328Z,99.90
2018-07-10T23:45:39.197Z,99.90
2018-07-10T23:48:07.114Z,99.90
2018-07-10T23:50:36.224Z,99.90
2018-07-10T23:53:19.955Z,99.90
2018-07-10T23:55:47.742Z,99.90
2018-07-10T23:58:15.449Z,99.90
